VTI466 VOBL-VABB
Flight info
| Callsign | VTI466 |
|---|---|
| Flight time | N/A |
| Altitude | 38000 |
| Route | VAGPU8A VAGPU Q8 AGELA MOLGO2A |
| Aircraft | A21N/M-SDE2E3FGHIRWXY/LB1 |
Departure
| Time | 2026-04-27 16:20 |
|---|---|
| Airport | Kempegowda International Airport Bengaluru (VOBL) |
Arrival
| Time | N/A |
|---|---|
| Airport | Chhatrapati Shivaji Maharaj International Airport (VABB) |
| Time | Latitude | Longitude | Altitude | Speed | Heading |
|---|---|---|---|---|---|
| 2026-04-27 16:01 | 13.20172 | 77.71064 | 3014 ft | 0 kts | 180° |
| 2026-04-27 16:11 | 13.20198 | 77.71064 | 2987 ft | 3 kts | 181° |
| 2026-04-27 16:12 | 13.20231 | 77.71068 | 3021 ft | 1 kts | 207° |
| 2026-04-27 16:12 | 13.20237 | 77.71073 | 3014 ft | 1 kts | 240° |
| 2026-04-27 16:12 | 13.20241 | 77.71089 | 3016 ft | 1 kts | 265° |
| 2026-04-27 16:13 | 13.20241 | 77.71086 | 3014 ft | 1 kts | 265° |
| 2026-04-27 16:13 | 13.20241 | 77.71082 | 3014 ft | 0 kts | 265° |
| 2026-04-27 16:14 | 13.20239 | 77.71030 | 3014 ft | 13 kts | 269° |
| 2026-04-27 16:15 | 13.20243 | 77.70854 | 3014 ft | 13 kts | 271° |
| 2026-04-27 16:15 | 13.20243 | 77.70581 | 3014 ft | 26 kts | 269° |
| 2026-04-27 16:16 | 13.20272 | 77.70398 | 3014 ft | 10 kts | 335° |
| 2026-04-27 16:16 | 13.20501 | 77.70391 | 3014 ft | 13 kts | 344° |
| 2026-04-27 16:17 | 13.20534 | 77.70093 | 3015 ft | 30 kts | 270° |
| 2026-04-27 16:17 | 13.20540 | 77.69642 | 3014 ft | 23 kts | 271° |
| 2026-04-27 16:18 | 13.20542 | 77.69242 | 3014 ft | 29 kts | 270° |
| 2026-04-27 16:18 | 13.20544 | 77.68763 | 3014 ft | 21 kts | 271° |
| 2026-04-27 16:19 | 13.20560 | 77.68631 | 3019 ft | 15 kts | 310° |
| 2026-04-27 16:19 | 13.20660 | 77.68618 | 3015 ft | 18 kts | 5° |
| 2026-04-27 16:20 | 13.20710 | 77.69280 | 3015 ft | 119 kts | 90° |
| 2026-04-27 16:20 | 13.20715 | 77.70453 | 3054 ft | 200 kts | 91° |
| 2026-04-27 16:20 | 13.20848 | 77.73832 | 4198 ft | 274 kts | 77° |
| 2026-04-27 16:21 | 13.21760 | 77.75628 | 4813 ft | 293 kts | 59° |
| 2026-04-27 16:21 | 13.25295 | 77.80958 | 6528 ft | 310 kts | 60° |
| 2026-04-27 16:22 | 13.26501 | 77.82825 | 7207 ft | 316 kts | 52° |
| 2026-04-27 16:22 | 13.30064 | 77.85374 | 9102 ft | 319 kts | 14° |
| 2026-04-27 16:22 | 13.32264 | 77.85493 | 10078 ft | 319 kts | 351° |
| 2026-04-27 16:23 | 13.34346 | 77.84713 | 10999 ft | 320 kts | 334° |
| 2026-04-27 16:23 | 13.38203 | 77.82404 | 12878 ft | 323 kts | 329° |
| 2026-04-27 16:23 | 13.40160 | 77.81198 | 13572 ft | 335 kts | 330° |
| 2026-04-27 16:24 | 13.42221 | 77.79940 | 13896 ft | 355 kts | 330° |
| 2026-04-27 16:24 | 13.46586 | 77.77297 | 13959 ft | 368 kts | 330° |
| 2026-04-27 16:25 | 13.50991 | 77.74639 | 13952 ft | 368 kts | 330° |
| 2026-04-27 16:25 | 13.55510 | 77.71916 | 14610 ft | 384 kts | 330° |
| 2026-04-27 16:26 | 13.59364 | 77.69594 | 15767 ft | 388 kts | 330° |
| 2026-04-27 16:26 | 13.64041 | 77.66774 | 17212 ft | 391 kts | 331° |
| 2026-04-27 16:27 | 13.68773 | 77.63921 | 18418 ft | 399 kts | 331° |
| 2026-04-27 16:27 | 13.76052 | 77.59529 | 19755 ft | 407 kts | 330° |
| 2026-04-27 16:28 | 13.80949 | 77.56571 | 20691 ft | 409 kts | 330° |
| 2026-04-27 16:28 | 13.85874 | 77.53595 | 21655 ft | 412 kts | 330° |
| 2026-04-27 16:29 | 13.93345 | 77.49079 | 23151 ft | 418 kts | 330° |
| 2026-04-27 16:30 | 13.98329 | 77.46113 | 24056 ft | 420 kts | 332° |
| 2026-04-27 16:30 | 14.03450 | 77.43065 | 24945 ft | 425 kts | 330° |
| 2026-04-27 16:31 | 14.11125 | 77.38438 | 26318 ft | 430 kts | 329° |
| 2026-04-27 16:31 | 14.16297 | 77.35307 | 27287 ft | 432 kts | 329° |
| 2026-04-27 16:32 | 14.21474 | 77.32169 | 28270 ft | 432 kts | 329° |
| 2026-04-27 16:32 | 14.24059 | 77.30600 | 28781 ft | 431 kts | 328° |
| 2026-04-27 16:33 | 14.29218 | 77.27468 | 29836 ft | 429 kts | 328° |
| 2026-04-27 16:33 | 14.31785 | 77.25908 | 30293 ft | 428 kts | 328° |
| 2026-04-27 16:33 | 14.34348 | 77.24349 | 30750 ft | 427 kts | 328° |
| 2026-04-27 16:33 | 14.36902 | 77.22796 | 31223 ft | 425 kts | 327° |
| 2026-04-27 16:34 | 14.39445 | 77.21248 | 31694 ft | 424 kts | 327° |
| 2026-04-27 16:34 | 14.41975 | 77.19708 | 32165 ft | 422 kts | 326° |
| 2026-04-27 16:34 | 14.44499 | 77.18171 | 32640 ft | 420 kts | 326° |
| 2026-04-27 16:34 | 14.47006 | 77.16643 | 33134 ft | 418 kts | 326° |
| 2026-04-27 16:35 | 14.49498 | 77.15125 | 33633 ft | 415 kts | 325° |
| 2026-04-27 16:35 | 14.51975 | 77.13615 | 34122 ft | 411 kts | 325° |
| 2026-04-27 16:35 | 14.56823 | 77.10660 | 34936 ft | 406 kts | 325° |
| 2026-04-27 16:36 | 14.59312 | 77.09259 | 35181 ft | 411 kts | 330° |
| 2026-04-27 16:36 | 14.61986 | 77.08144 | 35426 ft | 417 kts | 335° |
| 2026-04-27 16:36 | 14.64724 | 77.07129 | 35657 ft | 419 kts | 335° |
| 2026-04-27 16:36 | 14.67476 | 77.06131 | 35894 ft | 420 kts | 335° |
| 2026-04-27 16:37 | 14.70242 | 77.05128 | 36135 ft | 421 kts | 335° |
| 2026-04-27 16:37 | 14.73006 | 77.04124 | 36376 ft | 422 kts | 335° |
| 2026-04-27 16:37 | 14.75776 | 77.03115 | 36616 ft | 422 kts | 335° |
| 2026-04-27 16:37 | 14.78546 | 77.02104 | 36869 ft | 422 kts | 335° |
| 2026-04-27 16:38 | 14.81317 | 77.01092 | 37120 ft | 422 kts | 335° |
| 2026-04-27 16:38 | 14.84087 | 77.00079 | 37356 ft | 422 kts | 335° |
| 2026-04-27 16:38 | 14.86850 | 76.99069 | 37614 ft | 421 kts | 335° |
| 2026-04-27 16:38 | 14.89612 | 76.98058 | 37851 ft | 421 kts | 335° |
| 2026-04-27 16:39 | 14.92390 | 76.97040 | 37900 ft | 426 kts | 335° |
| 2026-04-27 16:39 | 14.98045 | 76.94967 | 37891 ft | 437 kts | 335° |
| 2026-04-27 16:40 | 15.03853 | 76.92841 | 37897 ft | 448 kts | 335° |
| 2026-04-27 16:40 | 15.09804 | 76.90664 | 37896 ft | 459 kts | 335° |
| 2026-04-27 16:41 | 15.15896 | 76.88434 | 37886 ft | 469 kts | 335° |
| 2026-04-27 16:41 | 15.22118 | 76.86155 | 37887 ft | 478 kts | 336° |
| 2026-04-27 16:42 | 15.28390 | 76.83858 | 37882 ft | 477 kts | 336° |
| 2026-04-27 16:42 | 15.34638 | 76.81566 | 37879 ft | 476 kts | 336° |
| 2026-04-27 16:43 | 15.40872 | 76.79275 | 37877 ft | 475 kts | 336° |
| 2026-04-27 16:43 | 15.47107 | 76.76981 | 37881 ft | 475 kts | 336° |
| 2026-04-27 16:44 | 15.53340 | 76.74687 | 37872 ft | 475 kts | 336° |
| 2026-04-27 16:44 | 15.59575 | 76.72390 | 37875 ft | 475 kts | 335° |
| 2026-04-27 16:45 | 15.65783 | 76.70023 | 37859 ft | 474 kts | 330° |
| 2026-04-27 16:45 | 15.71103 | 76.66274 | 37864 ft | 456 kts | 309° |
| 2026-04-27 16:46 | 15.75105 | 76.61258 | 37876 ft | 450 kts | 303° |
| 2026-04-27 16:46 | 15.78938 | 76.56129 | 37868 ft | 450 kts | 303° |
| 2026-04-27 16:47 | 15.82782 | 76.51003 | 37867 ft | 450 kts | 303° |
| 2026-04-27 16:47 | 15.86595 | 76.45928 | 37875 ft | 448 kts | 303° |
| 2026-04-27 16:48 | 15.90423 | 76.40834 | 37879 ft | 447 kts | 303° |
| 2026-04-27 16:48 | 15.94242 | 76.35748 | 37878 ft | 446 kts | 303° |
| 2026-04-27 16:49 | 15.99960 | 76.28128 | 37879 ft | 445 kts | 303° |
| 2026-04-27 16:49 | 16.03767 | 76.23051 | 37877 ft | 445 kts | 303° |
| 2026-04-27 16:50 | 16.07575 | 76.17969 | 37878 ft | 445 kts | 303° |
| 2026-04-27 16:50 | 16.11381 | 76.12885 | 37881 ft | 445 kts | 303° |
| 2026-04-27 16:51 | 16.14656 | 76.08508 | 37878 ft | 445 kts | 303° |